sensor_id;sensor_type;location;lat;lon;timestamp;temperature;humidity
60234;DHT22;49514;43.538;-5.708;2023-05-23T00:02:02;17.40;99.90
60234;DHT22;49514;43.538;-5.708;2023-05-23T00:04:33;17.30;99.90
60234;DHT22;49514;43.538;-5.708;2023-05-23T00:07:02;17.30;99.90
60234;DHT22;49514;43.538;-5.708;2023-05-23T00:09:29;17.30;99.90
60234;DHT22;49514;43.538;-5.708;2023-05-23T00:11:56;17.30;99.90
60234;DHT22;49514;43.538;-5.708;2023-05-23T00:14:24;17.30;99.90
60234;DHT22;49514;43.538;-5.708;2023-05-23T00:16:51;17.30;99.90
60234;DHT22;49514;43.538;-5.708;2023-05-23T00:19:17;17.30;99.90
60234;DHT22;49514;43.538;-5.708;2023-05-23T00:21:46;17.30;99.90
60234;DHT22;49514;43.538;-5.708;2023-05-23T00:24:22;17.30;99.90
60234;DHT22;49514;43.538;-5.708;2023-05-23T00:26:48;17.30;99.90
60234;DHT22;49514;43.538;-5.708;2023-05-23T00:29:15;17.30;99.90
60234;DHT22;49514;43.538;-5.708;2023-05-23T00:31:43;17.30;99.90
60234;DHT22;49514;43.538;-5.708;2023-05-23T00:34:12;17.30;99.90
60234;DHT22;49514;43.538;-5.708;2023-05-23T00:36:39;17.30;99.90
60234;DHT22;49514;43.538;-5.708;2023-05-23T00:39:10;17.30;99.90
60234;DHT22;49514;43.538;-5.708;2023-05-23T00:41:50;17.30;99.90
60234;DHT22;49514;43.538;-5.708;2023-05-23T00:44:18;17.30;99.90
60234;DHT22;49514;43.538;-5.708;2023-05-23T00:46:51;17.30;99.90
60234;DHT22;49514;43.538;-5.708;2023-05-23T00:49:19;17.30;99.90
60234;DHT22;49514;43.538;-5.708;2023-05-23T00:51:46;17.30;99.90
60234;DHT22;49514;43.538;-5.708;2023-05-23T00:54:17;17.30;99.90
60234;DHT22;49514;43.538;-5.708;2023-05-23T00:56:46;17.30;99.90
60234;DHT22;49514;43.538;-5.708;2023-05-23T00:59:14;17.30;99.90
60234;DHT22;49514;43.538;-5.708;2023-05-23T01:01:42;17.30;99.90
60234;DHT22;49514;43.538;-5.708;2023-05-23T01:04:12;17.30;99.90
60234;DHT22;49514;43.538;-5.708;2023-05-23T01:06:39;17.30;99.90
60234;DHT22;49514;43.538;-5.708;2023-05-23T01:09:06;17.30;99.90
60234;DHT22;49514;43.538;-5.708;2023-05-23T01:14:48;17.20;99.90
60234;DHT22;49514;43.538;-5.708;2023-05-23T01:17:23;17.20;99.90
60234;DHT22;49514;43.538;-5.708;2023-05-23T01:28:40;17.20;99.90
60234;DHT22;49514;43.538;-5.708;2023-05-23T01:31:09;17.20;99.90
60234;DHT22;49514;43.538;-5.708;2023-05-23T01:33:38;17.20;99.90
60234;DHT22;49514;43.538;-5.708;2023-05-23T01:36:05;17.20;99.90
60234;DHT22;49514;43.538;-5.708;2023-05-23T01:38:33;17.20;99.90
60234;DHT22;49514;43.538;-5.708;2023-05-23T01:41:00;17.20;99.90
60234;DHT22;49514;43.538;-5.708;2023-05-23T01:43:26;17.20;99.90
60234;DHT22;49514;43.538;-5.708;2023-05-23T01:45:54;17.20;99.90
60234;DHT22;49514;43.538;-5.708;2023-05-23T01:48:23;17.20;99.90
60234;DHT22;49514;43.538;-5.708;2023-05-23T01:50:51;17.20;99.90
60234;DHT22;49514;43.538;-5.708;2023-05-23T01:53:20;17.20;99.90
60234;DHT22;49514;43.538;-5.708;2023-05-23T01:55:48;17.20;99.90
60234;DHT22;49514;43.538;-5.708;2023-05-23T01:58:15;17.20;99.90
60234;DHT22;49514;43.538;-5.708;2023-05-23T02:00:42;17.20;99.90
60234;DHT22;49514;43.538;-5.708;2023-05-23T02:03:09;17.20;99.90
60234;DHT22;49514;43.538;-5.708;2023-05-23T02:05:36;17.20;99.90
60234;DHT22;49514;43.538;-5.708;2023-05-23T02:08:03;17.20;99.90
60234;DHT22;49514;43.538;-5.708;2023-05-23T02:10:30;17.10;99.90
60234;DHT22;49514;43.538;-5.708;2023-05-23T02:12:56;17.10;99.90
60234;DHT22;49514;43.538;-5.708;2023-05-23T02:15:23;17.10;99.90
60234;DHT22;49514;43.538;-5.708;2023-05-23T02:17:50;17.20;99.90
60234;DHT22;49514;43.538;-5.708;2023-05-23T02:20:17;17.20;99.90
60234;DHT22;49514;43.538;-5.708;2023-05-23T02:22:44;17.20;99.90
60234;DHT22;49514;43.538;-5.708;2023-05-23T02:25:10;17.20;99.90
60234;DHT22;49514;43.538;-5.708;2023-05-23T02:27:39;17.20;99.90
60234;DHT22;49514;43.538;-5.708;2023-05-23T02:30:06;17.20;99.90
60234;DHT22;49514;43.538;-5.708;2023-05-23T02:32:33;17.20;99.90
60234;DHT22;49514;43.538;-5.708;2023-05-23T02:35:00;17.20;99.90
60234;DHT22;49514;43.538;-5.708;2023-05-23T02:37:28;17.20;99.90
60234;DHT22;49514;43.538;-5.708;2023-05-23T02:39:55;17.20;99.90
60234;DHT22;49514;43.538;-5.708;2023-05-23T02:42:22;17.20;99.90
60234;DHT22;49514;43.538;-5.708;2023-05-23T02:44:48;17.20;99.90
60234;DHT22;49514;43.538;-5.708;2023-05-23T02:47:15;17.20;99.90
60234;DHT22;49514;43.538;-5.708;2023-05-23T02:49:41;17.20;99.90
60234;DHT22;49514;43.538;-5.708;2023-05-23T02:52:08;17.20;99.90
60234;DHT22;49514;43.538;-5.708;2023-05-23T02:54:35;17.20;99.90
60234;DHT22;49514;43.538;-5.708;2023-05-23T02:57:01;17.20;99.90
60234;DHT22;49514;43.538;-5.708;2023-05-23T02:59:29;17.20;99.90
60234;DHT22;49514;43.538;-5.708;2023-05-23T03:01:56;17.10;99.90
60234;DHT22;49514;43.538;-5.708;2023-05-23T03:04:23;17.10;99.90
60234;DHT22;49514;43.538;-5.708;2023-05-23T03:06:49;17.20;99.90
60234;DHT22;49514;43.538;-5.708;2023-05-23T03:09:19;17.20;99.90
60234;DHT22;49514;43.538;-5.708;2023-05-23T03:11:46;17.20;99.90
60234;DHT22;49514;43.538;-5.708;2023-05-23T03:14:13;17.10;99.90
60234;DHT22;49514;43.538;-5.708;2023-05-23T03:16:40;17.10;99.90
60234;DHT22;49514;43.538;-5.708;2023-05-23T03:19:07;17.10;99.90
60234;DHT22;49514;43.538;-5.708;2023-05-23T03:21:34;17.10;99.90
60234;DHT22;49514;43.538;-5.708;2023-05-23T03:24:01;17.10;99.90
60234;DHT22;49514;43.538;-5.708;2023-05-23T03:26:29;17.10;99.90
60234;DHT22;49514;43.538;-5.708;2023-05-23T03:28:56;17.10;99.90
60234;DHT22;49514;43.538;-5.708;2023-05-23T03:31:23;17.10;99.90
60234;DHT22;49514;43.538;-5.708;2023-05-23T03:33:49;17.20;99.90
60234;DHT22;49514;43.538;-5.708;2023-05-23T03:36:16;17.20;99.90
60234;DHT22;49514;43.538;-5.708;2023-05-23T03:38:43;17.20;99.90
60234;DHT22;49514;43.538;-5.708;2023-05-23T03:41:10;17.20;99.90
60234;DHT22;49514;43.538;-5.708;2023-05-23T03:43:36;17.10;99.90
60234;DHT22;49514;43.538;-5.708;2023-05-23T03:46:03;17.20;99.90
60234;DHT22;49514;43.538;-5.708;2023-05-23T03:48:30;17.10;99.90
60234;DHT22;49514;43.538;-5.708;2023-05-23T03:50:56;17.10;99.90
60234;DHT22;49514;43.538;-5.708;2023-05-23T03:53:24;17.10;99.90
60234;DHT22;49514;43.538;-5.708;2023-05-23T03:55:51;17.10;99.90
60234;DHT22;49514;43.538;-5.708;2023-05-23T03:58:19;17.10;99.90
60234;DHT22;49514;43.538;-5.708;2023-05-23T04:00:50;17.10;99.90
60234;DHT22;49514;43.538;-5.708;2023-05-23T04:03:19;17.10;99.90
60234;DHT22;49514;43.538;-5.708;2023-05-23T04:05:46;17.10;99.90
60234;DHT22;49514;43.538;-5.708;2023-05-23T04:08:13;17.10;99.90
60234;DHT22;49514;43.538;-5.708;2023-05-23T04:10:40;17.10;99.90
60234;DHT22;49514;43.538;-5.708;2023-05-23T04:13:06;17.10;99.90
60234;DHT22;49514;43.538;-5.708;2023-05-23T04:15:35;17.10;99.90
60234;DHT22;49514;43.538;-5.708;2023-05-23T04:18:10;17.10;99.90
60234;DHT22;49514;43.538;-5.708;2023-05-23T04:20:37;17.00;99.90
60234;DHT22;49514;43.538;-5.708;2023-05-23T04:23:04;17.00;99.90
60234;DHT22;49514;43.538;-5.708;2023-05-23T04:25:34;17.00;99.90
60234;DHT22;49514;43.538;-5.708;2023-05-23T04:28:24;17.00;99.90
60234;DHT22;49514;43.538;-5.708;2023-05-23T04:30:51;17.00;99.90
60234;DHT22;49514;43.538;-5.708;2023-05-23T04:33:22;17.00;99.90
60234;DHT22;49514;43.538;-5.708;2023-05-23T04:35:49;17.00;99.90
60234;DHT22;49514;43.538;-5.708;2023-05-23T04:38:16;17.00;99.90
60234;DHT22;49514;43.538;-5.708;2023-05-23T04:40:43;17.00;99.90
60234;DHT22;49514;43.538;-5.708;2023-05-23T04:43:09;17.00;99.90
60234;DHT22;49514;43.538;-5.708;2023-05-23T04:45:52;17.00;99.90
60234;DHT22;49514;43.538;-5.708;2023-05-23T04:48:41;17.00;99.90
60234;DHT22;49514;43.538;-5.708;2023-05-23T04:51:10;17.00;99.90
60234;DHT22;49514;43.538;-5.708;2023-05-23T04:53:47;17.10;99.90
60234;DHT22;49514;43.538;-5.708;2023-05-23T04:56:14;17.00;99.90
60234;DHT22;49514;43.538;-5.708;2023-05-23T04:58:43;17.10;99.90
60234;DHT22;49514;43.538;-5.708;2023-05-23T05:01:11;17.00;99.90
60234;DHT22;49514;43.538;-5.708;2023-05-23T05:03:39;17.10;99.90
60234;DHT22;49514;43.538;-5.708;2023-05-23T05:06:06;17.10;99.90
60234;DHT22;49514;43.538;-5.708;2023-05-23T05:08:33;17.10;99.90
60234;DHT22;49514;43.538;-5.708;2023-05-23T05:11:00;17.10;99.90
60234;DHT22;49514;43.538;-5.708;2023-05-23T05:13:26;17.10;99.90
60234;DHT22;49514;43.538;-5.708;2023-05-23T05:15:55;17.10;99.90
60234;DHT22;49514;43.538;-5.708;2023-05-23T05:18:28;17.10;99.90
60234;DHT22;49514;43.538;-5.708;2023-05-23T05:20:57;17.10;99.90
60234;DHT22;49514;43.538;-5.708;2023-05-23T05:23:25;17.20;99.90
60234;DHT22;49514;43.538;-5.708;2023-05-23T05:25:55;17.20;99.90
60234;DHT22;49514;43.538;-5.708;2023-05-23T05:28:22;17.20;99.90
60234;DHT22;49514;43.538;-5.708;2023-05-23T05:30:51;17.20;99.90
60234;DHT22;49514;43.538;-5.708;2023-05-23T05:33:21;17.20;99.90
60234;DHT22;49514;43.538;-5.708;2023-05-23T05:35:58;17.20;99.90
60234;DHT22;49514;43.538;-5.708;2023-05-23T05:38:25;17.30;99.90
60234;DHT22;49514;43.538;-5.708;2023-05-23T05:40:52;17.30;99.90
60234;DHT22;49514;43.538;-5.708;2023-05-23T05:43:19;17.30;99.90
60234;DHT22;49514;43.538;-5.708;2023-05-23T05:45:47;17.30;99.90
60234;DHT22;49514;43.538;-5.708;2023-05-23T05:48:14;17.30;99.90
60234;DHT22;49514;43.538;-5.708;2023-05-23T05:50:42;17.30;99.90
60234;DHT22;49514;43.538;-5.708;2023-05-23T05:53:13;17.30;99.90
60234;DHT22;49514;43.538;-5.708;2023-05-23T05:55:39;17.40;99.90
60234;DHT22;49514;43.538;-5.708;2023-05-23T05:58:06;17.40;99.90
60234;DHT22;49514;43.538;-5.708;2023-05-23T06:00:47;17.40;99.90
60234;DHT22;49514;43.538;-5.708;2023-05-23T06:03:14;17.50;99.90
60234;DHT22;49514;43.538;-5.708;2023-05-23T06:05:48;17.50;99.90
60234;DHT22;49514;43.538;-5.708;2023-05-23T06:08:15;17.50;99.90
60234;DHT22;49514;43.538;-5.708;2023-05-23T06:10:42;17.50;99.90
60234;DHT22;49514;43.538;-5.708;2023-05-23T06:13:09;17.60;99.90
60234;DHT22;49514;43.538;-5.708;2023-05-23T06:15:37;17.70;99.90
60234;DHT22;49514;43.538;-5.708;2023-05-23T06:18:04;17.80;99.90
60234;DHT22;49514;43.538;-5.708;2023-05-23T06:20:31;17.90;99.90
60234;DHT22;49514;43.538;-5.708;2023-05-23T06:23:01;18.10;99.90
60234;DHT22;49514;43.538;-5.708;2023-05-23T06:25:30;18.20;99.90
60234;DHT22;49514;43.538;-5.708;2023-05-23T06:28:15;18.30;99.90
60234;DHT22;49514;43.538;-5.708;2023-05-23T06:30:42;18.30;99.90
60234;DHT22;49514;43.538;-5.708;2023-05-23T06:33:09;18.30;99.90
60234;DHT22;49514;43.538;-5.708;2023-05-23T06:35:37;18.20;99.90
60234;DHT22;49514;43.538;-5.708;2023-05-23T06:38:03;18.20;99.90
60234;DHT22;49514;43.538;-5.708;2023-05-23T06:40:30;18.10;99.90
60234;DHT22;49514;43.538;-5.708;2023-05-23T06:42:57;18.10;99.90
60234;DHT22;49514;43.538;-5.708;2023-05-23T06:45:45;18.20;99.90
60234;DHT22;49514;43.538;-5.708;2023-05-23T06:48:13;18.30;99.90
60234;DHT22;49514;43.538;-5.708;2023-05-23T06:50:40;18.40;99.90
60234;DHT22;49514;43.538;-5.708;2023-05-23T06:53:08;18.40;99.90
60234;DHT22;49514;43.538;-5.708;2023-05-23T06:55:34;18.50;99.90
60234;DHT22;49514;43.538;-5.708;2023-05-23T06:58:01;18.60;99.90
60234;DHT22;49514;43.538;-5.708;2023-05-23T07:00:33;18.70;99.90
60234;DHT22;49514;43.538;-5.708;2023-05-23T07:03:22;18.80;99.90
60234;DHT22;49514;43.538;-5.708;2023-05-23T07:05:50;18.70;99.90
60234;DHT22;49514;43.538;-5.708;2023-05-23T07:08:18;18.60;99.90
60234;DHT22;49514;43.538;-5.708;2023-05-23T07:11:05;18.60;99.90
60234;DHT22;49514;43.538;-5.708;2023-05-23T07:13:43;18.60;99.90
60234;DHT22;49514;43.538;-5.708;2023-05-23T07:16:18;18.60;99.90
60234;DHT22;49514;43.538;-5.708;2023-05-23T07:19:01;18.60;99.90
60234;DHT22;49514;43.538;-5.708;2023-05-23T07:21:29;18.50;99.90
60234;DHT22;49514;43.538;-5.708;2023-05-23T07:23:57;18.60;99.90
60234;DHT22;49514;43.538;-5.708;2023-05-23T07:26:23;18.60;99.90
60234;DHT22;49514;43.538;-5.708;2023-05-23T07:28:54;18.60;99.90
60234;DHT22;49514;43.538;-5.708;2023-05-23T07:31:21;18.50;99.90
60234;DHT22;49514;43.538;-5.708;2023-05-23T07:33:50;18.50;99.90
60234;DHT22;49514;43.538;-5.708;2023-05-23T07:36:23;18.40;99.90
60234;DHT22;49514;43.538;-5.708;2023-05-23T07:38:51;18.40;99.90
60234;DHT22;49514;43.538;-5.708;2023-05-23T07:41:18;18.50;99.90
60234;DHT22;49514;43.538;-5.708;2023-05-23T07:43:45;18.70;99.90
60234;DHT22;49514;43.538;-5.708;2023-05-23T07:46:12;18.90;99.90
60234;DHT22;49514;43.538;-5.708;2023-05-23T07:48:38;19.00;99.90
60234;DHT22;49514;43.538;-5.708;2023-05-23T07:51:05;19.20;99.90
60234;DHT22;49514;43.538;-5.708;2023-05-23T07:53:32;19.30;99.90
60234;DHT22;49514;43.538;-5.708;2023-05-23T07:56:02;19.50;99.90
60234;DHT22;49514;43.538;-5.708;2023-05-23T07:58:33;19.70;99.90
60234;DHT22;49514;43.538;-5.708;2023-05-23T08:01:00;19.80;99.90
60234;DHT22;49514;43.538;-5.708;2023-05-23T08:03:54;20.00;99.90
60234;DHT22;49514;43.538;-5.708;2023-05-23T08:06:28;20.10;99.90
60234;DHT22;49514;43.538;-5.708;2023-05-23T08:09:00;20.30;99.90
60234;DHT22;49514;43.538;-5.708;2023-05-23T08:11:27;20.40;99.90
60234;DHT22;49514;43.538;-5.708;2023-05-23T08:13:56;20.40;99.90
60234;DHT22;49514;43.538;-5.708;2023-05-23T08:16:42;20.50;99.90
60234;DHT22;49514;43.538;-5.708;2023-05-23T08:19:18;20.40;99.90
60234;DHT22;49514;43.538;-5.708;2023-05-23T08:21:46;20.50;99.90
60234;DHT22;49514;43.538;-5.708;2023-05-23T08:24:12;20.50;99.90
60234;DHT22;49514;43.538;-5.708;2023-05-23T08:26:39;20.70;99.90
60234;DHT22;49514;43.538;-5.708;2023-05-23T08:29:10;21.00;99.90
60234;DHT22;49514;43.538;-5.708;2023-05-23T08:31:37;21.20;99.90
60234;DHT22;49514;43.538;-5.708;2023-05-23T08:34:05;21.20;99.90
60234;DHT22;49514;43.538;-5.708;2023-05-23T08:36:32;21.30;99.90
60234;DHT22;49514;43.538;-5.708;2023-05-23T08:39:02;21.40;99.90
60234;DHT22;49514;43.538;-5.708;2023-05-23T08:41:33;21.50;99.90
60234;DHT22;49514;43.538;-5.708;2023-05-23T08:44:08;21.50;99.90
60234;DHT22;49514;43.538;-5.708;2023-05-23T08:46:45;21.80;99.90
60234;DHT22;49514;43.538;-5.708;2023-05-23T08:49:19;22.10;99.90
60234;DHT22;49514;43.538;-5.708;2023-05-23T08:51:51;22.30;99.90
60234;DHT22;49514;43.538;-5.708;2023-05-23T08:54:21;22.30;99.90
60234;DHT22;49514;43.538;-5.708;2023-05-23T08:56:48;22.20;99.90
60234;DHT22;49514;43.538;-5.708;2023-05-23T08:59:18;22.40;99.90
60234;DHT22;49514;43.538;-5.708;2023-05-23T09:01:47;22.50;99.90
60234;DHT22;49514;43.538;-5.708;2023-05-23T09:04:15;22.80;99.90
60234;DHT22;49514;43.538;-5.708;2023-05-23T09:06:49;22.90;99.90
60234;DHT22;49514;43.538;-5.708;2023-05-23T09:09:16;23.10;99.90
60234;DHT22;49514;43.538;-5.708;2023-05-23T09:11:43;23.20;99.90
60234;DHT22;49514;43.538;-5.708;2023-05-23T09:14:11;23.20;99.90
60234;DHT22;49514;43.538;-5.708;2023-05-23T09:16:40;23.20;99.90
60234;DHT22;49514;43.538;-5.708;2023-05-23T09:19:13;23.00;99.90
60234;DHT22;49514;43.538;-5.708;2023-05-23T09:21:45;23.00;99.90
60234;DHT22;49514;43.538;-5.708;2023-05-23T09:24:19;23.00;99.90
60234;DHT22;49514;43.538;-5.708;2023-05-23T09:26:47;23.00;99.90
60234;DHT22;49514;43.538;-5.708;2023-05-23T09:29:19;22.80;99.90
60234;DHT22;49514;43.538;-5.708;2023-05-23T09:31:47;22.50;99.90
60234;DHT22;49514;43.538;-5.708;2023-05-23T09:34:14;22.40;99.90
60234;DHT22;49514;43.538;-5.708;2023-05-23T09:36:40;22.20;99.90
60234;DHT22;49514;43.538;-5.708;2023-05-23T09:39:10;22.00;99.90
60234;DHT22;49514;43.538;-5.708;2023-05-23T09:41:37;22.10;99.90
60234;DHT22;49514;43.538;-5.708;2023-05-23T09:44:06;21.90;99.90
60234;DHT22;49514;43.538;-5.708;2023-05-23T09:46:35;21.80;99.90
60234;DHT22;49514;43.538;-5.708;2023-05-23T09:49:17;21.70;99.90
60234;DHT22;49514;43.538;-5.708;2023-05-23T09:51:57;21.70;99.90
60234;DHT22;49514;43.538;-5.708;2023-05-23T09:54:24;21.90;99.90
60234;DHT22;49514;43.538;-5.708;2023-05-23T09:56:52;21.80;99.90
60234;DHT22;49514;43.538;-5.708;2023-05-23T09:59:20;21.90;99.90
60234;DHT22;49514;43.538;-5.708;2023-05-23T10:01:51;22.20;99.90
60234;DHT22;49514;43.538;-5.708;2023-05-23T10:04:21;22.30;99.90
60234;DHT22;49514;43.538;-5.708;2023-05-23T10:06:51;22.20;99.90
60234;DHT22;49514;43.538;-5.708;2023-05-23T10:09:20;22.20;99.90
60234;DHT22;49514;43.538;-5.708;2023-05-23T10:14:57;22.30;99.90
60234;DHT22;49514;43.538;-5.708;2023-05-23T10:17:32;22.40;99.90
60234;DHT22;49514;43.538;-5.708;2023-05-23T10:20:09;22.70;99.90
60234;DHT22;49514;43.538;-5.708;2023-05-23T10:22:38;22.90;99.90
60234;DHT22;49514;43.538;-5.708;2023-05-23T10:25:06;23.10;99.90
60234;DHT22;49514;43.538;-5.708;2023-05-23T10:27:34;23.20;99.90
60234;DHT22;49514;43.538;-5.708;2023-05-23T10:30:01;23.30;99.90
60234;DHT22;49514;43.538;-5.708;2023-05-23T10:32:29;23.50;99.90
60234;DHT22;49514;43.538;-5.708;2023-05-23T10:37:45;24.00;99.90
60234;DHT22;49514;43.538;-5.708;2023-05-23T10:43:13;24.50;99.90
60234;DHT22;49514;43.538;-5.708;2023-05-23T10:45:41;24.60;99.90
60234;DHT22;49514;43.538;-5.708;2023-05-23T10:51:07;24.40;99.90
60234;DHT22;49514;43.538;-5.708;2023-05-23T10:53:43;24.50;99.90
60234;DHT22;49514;43.538;-5.708;2023-05-23T10:56:19;24.50;99.90
60234;DHT22;49514;43.538;-5.708;2023-05-23T10:58:55;24.60;99.90
60234;DHT22;49514;43.538;-5.708;2023-05-23T11:01:24;25.10;99.90
60234;DHT22;49514;43.538;-5.708;2023-05-23T11:03:52;25.20;99.90
60234;DHT22;49514;43.538;-5.708;2023-05-23T11:06:37;25.30;99.90
60234;DHT22;49514;43.538;-5.708;2023-05-23T11:09:14;25.20;99.90
60234;DHT22;49514;43.538;-5.708;2023-05-23T11:11:51;25.00;99.90
60234;DHT22;49514;43.538;-5.708;2023-05-23T11:17:14;24.70;99.90
60234;DHT22;49514;43.538;-5.708;2023-05-23T11:20:04;24.60;99.90
60234;DHT22;49514;43.538;-5.708;2023-05-23T11:22:35;24.50;99.90
60234;DHT22;49514;43.538;-5.708;2023-05-23T11:25:08;24.50;99.90
60234;DHT22;49514;43.538;-5.708;2023-05-23T11:27:36;24.40;99.90
60234;DHT22;49514;43.538;-5.708;2023-05-23T11:30:10;24.40;99.90
60234;DHT22;49514;43.538;-5.708;2023-05-23T11:32:39;24.60;99.90
60234;DHT22;49514;43.538;-5.708;2023-05-23T11:35:08;24.80;99.90
60234;DHT22;49514;43.538;-5.708;2023-05-23T11:37:37;25.10;99.90
60234;DHT22;49514;43.538;-5.708;2023-05-23T11:40:24;24.80;99.90
60234;DHT22;49514;43.538;-5.708;2023-05-23T11:42:51;24.80;99.90
60234;DHT22;49514;43.538;-5.708;2023-05-23T11:45:24;24.80;99.90
60234;DHT22;49514;43.538;-5.708;2023-05-23T11:47:52;25.10;99.90
60234;DHT22;49514;43.538;-5.708;2023-05-23T11:50:19;25.40;99.90
60234;DHT22;49514;43.538;-5.708;2023-05-23T11:52:46;25.60;99.90
60234;DHT22;49514;43.538;-5.708;2023-05-23T11:55:19;26.00;99.90
60234;DHT22;49514;43.538;-5.708;2023-05-23T11:57:47;26.20;99.90
60234;DHT22;49514;43.538;-5.708;2023-05-23T12:00:15;26.40;99.90
60234;DHT22;49514;43.538;-5.708;2023-05-23T12:02:43;26.60;99.90
60234;DHT22;49514;43.538;-5.708;2023-05-23T12:05:11;26.70;99.90
60234;DHT22;49514;43.538;-5.708;2023-05-23T12:07:45;26.60;99.90
60234;DHT22;49514;43.538;-5.708;2023-05-23T12:10:16;26.80;99.90
60234;DHT22;49514;43.538;-5.708;2023-05-23T12:12:43;26.70;99.90
60234;DHT22;49514;43.538;-5.708;2023-05-23T12:15:11;26.60;99.90
60234;DHT22;49514;43.538;-5.708;2023-05-23T12:17:43;26.70;99.90
60234;DHT22;49514;43.538;-5.708;2023-05-23T12:20:11;27.10;99.90
60234;DHT22;49514;43.538;-5.708;2023-05-23T12:22:38;27.30;99.90
60234;DHT22;49514;43.538;-5.708;2023-05-23T12:25:08;27.60;99.90
60234;DHT22;49514;43.538;-5.708;2023-05-23T12:27:35;27.90;99.90
60234;DHT22;49514;43.538;-5.708;2023-05-23T12:30:15;28.10;99.90
60234;DHT22;49514;43.538;-5.708;2023-05-23T12:32:43;27.80;99.90
60234;DHT22;49514;43.538;-5.708;2023-05-23T12:35:14;28.00;99.90
60234;DHT22;49514;43.538;-5.708;2023-05-23T12:37:44;28.40;99.90
60234;DHT22;49514;43.538;-5.708;2023-05-23T12:40:17;28.70;99.90
60234;DHT22;49514;43.538;-5.708;2023-05-23T12:42:57;29.00;99.90
60234;DHT22;49514;43.538;-5.708;2023-05-23T12:45:35;29.30;98.80
60234;DHT22;49514;43.538;-5.708;2023-05-23T12:48:20;29.40;99.40
60234;DHT22;49514;43.538;-5.708;2023-05-23T12:50:47;29.60;97.60
60234;DHT22;49514;43.538;-5.708;2023-05-23T12:53:14;29.80;97.30
60234;DHT22;49514;43.538;-5.708;2023-05-23T12:55:40;29.70;96.50
60234;DHT22;49514;43.538;-5.708;2023-05-23T12:58:07;30.20;97.10
60234;DHT22;49514;43.538;-5.708;2023-05-23T13:00:33;30.90;96.30
60234;DHT22;49514;43.538;-5.708;2023-05-23T13:03:00;31.70;94.20
60234;DHT22;49514;43.538;-5.708;2023-05-23T13:05:27;32.20;91.80
60234;DHT22;49514;43.538;-5.708;2023-05-23T13:07:53;32.20;91.30
60234;DHT22;49514;43.538;-5.708;2023-05-23T13:10:21;32.40;88.90
60234;DHT22;49514;43.538;-5.708;2023-05-23T13:12:47;32.70;88.60
60234;DHT22;49514;43.538;-5.708;2023-05-23T13:15:14;33.10;88.50
60234;DHT22;49514;43.538;-5.708;2023-05-23T13:17:41;33.70;85.50
60234;DHT22;49514;43.538;-5.708;2023-05-23T13:20:09;34.60;84.00
60234;DHT22;49514;43.538;-5.708;2023-05-23T13:22:36;35.20;83.50
60234;DHT22;49514;43.538;-5.708;2023-05-23T13:25:03;34.60;80.20
60234;DHT22;49514;43.538;-5.708;2023-05-23T13:27:29;33.60;80.80
60234;DHT22;49514;43.538;-5.708;2023-05-23T13:29:57;34.40;81.40
60234;DHT22;49514;43.538;-5.708;2023-05-23T13:32:23;35.30;82.70
60234;DHT22;49514;43.538;-5.708;2023-05-23T13:34:50;36.50;76.10
60234;DHT22;49514;43.538;-5.708;2023-05-23T13:37:16;37.20;77.30
60234;DHT22;49514;43.538;-5.708;2023-05-23T13:39:43;39.40;71.00
60234;DHT22;49514;43.538;-5.708;2023-05-23T13:42:10;40.90;69.40
60234;DHT22;49514;43.538;-5.708;2023-05-23T13:44:37;42.10;65.90
60234;DHT22;49514;43.538;-5.708;2023-05-23T13:47:13;41.90;64.10
60234;DHT22;49514;43.538;-5.708;2023-05-23T13:49:41;42.30;64.10
60234;DHT22;49514;43.538;-5.708;2023-05-23T13:52:08;42.40;65.10
60234;DHT22;49514;43.538;-5.708;2023-05-23T13:54:35;42.30;62.20
60234;DHT22;49514;43.538;-5.708;2023-05-23T13:57:01;43.30;59.50
60234;DHT22;49514;43.538;-5.708;2023-05-23T13:59:28;44.00;60.80
60234;DHT22;49514;43.538;-5.708;2023-05-23T14:01:55;43.90;58.30
60234;DHT22;49514;43.538;-5.708;2023-05-23T14:04:22;40.90;60.30
60234;DHT22;49514;43.538;-5.708;2023-05-23T14:06:48;38.90;62.10
60234;DHT22;49514;43.538;-5.708;2023-05-23T14:09:16;37.00;63.70
60234;DHT22;49514;43.538;-5.708;2023-05-23T14:11:43;35.70;66.10
60234;DHT22;49514;43.538;-5.708;2023-05-23T14:14:09;34.90;67.50
60234;DHT22;49514;43.538;-5.708;2023-05-23T14:16:36;33.90;69.00
60234;DHT22;49514;43.538;-5.708;2023-05-23T14:19:02;32.90;70.80
60234;DHT22;49514;43.538;-5.708;2023-05-23T14:21:29;31.80;73.40
60234;DHT22;49514;43.538;-5.708;2023-05-23T14:23:56;31.00;75.30
60234;DHT22;49514;43.538;-5.708;2023-05-23T14:26:23;30.00;80.30
60234;DHT22;49514;43.538;-5.708;2023-05-23T14:28:49;29.00;85.00
60234;DHT22;49514;43.538;-5.708;2023-05-23T14:31:15;28.20;88.70
60234;DHT22;49514;43.538;-5.708;2023-05-23T14:33:42;27.70;89.70
60234;DHT22;49514;43.538;-5.708;2023-05-23T14:36:09;27.20;91.30
60234;DHT22;49514;43.538;-5.708;2023-05-23T14:38:36;26.90;92.20
60234;DHT22;49514;43.538;-5.708;2023-05-23T14:41:04;26.60;94.60
60234;DHT22;49514;43.538;-5.708;2023-05-23T14:43:31;26.10;96.00
60234;DHT22;49514;43.538;-5.708;2023-05-23T14:45:58;26.30;94.90
60234;DHT22;49514;43.538;-5.708;2023-05-23T14:48:25;26.20;95.80
60234;DHT22;49514;43.538;-5.708;2023-05-23T14:50:51;26.10;96.30
60234;DHT22;49514;43.538;-5.708;2023-05-23T14:53:18;26.00;96.70
60234;DHT22;49514;43.538;-5.708;2023-05-23T14:55:47;25.90;96.50
60234;DHT22;49514;43.538;-5.708;2023-05-23T14:58:14;25.60;97.60
60234;DHT22;49514;43.538;-5.708;2023-05-23T15:00:40;25.30;97.50
60234;DHT22;49514;43.538;-5.708;2023-05-23T15:03:07;25.00;99.00
60234;DHT22;49514;43.538;-5.708;2023-05-23T15:05:35;24.60;99.90
60234;DHT22;49514;43.538;-5.708;2023-05-23T15:08:02;24.50;99.90
60234;DHT22;49514;43.538;-5.708;2023-05-23T15:10:29;24.30;99.90
60234;DHT22;49514;43.538;-5.708;2023-05-23T15:12:55;24.30;99.90
60234;DHT22;49514;43.538;-5.708;2023-05-23T15:15:22;24.00;99.90
60234;DHT22;49514;43.538;-5.708;2023-05-23T15:17:50;23.90;99.90
60234;DHT22;49514;43.538;-5.708;2023-05-23T15:20:19;23.80;99.90
60234;DHT22;49514;43.538;-5.708;2023-05-23T15:22:46;23.70;99.90
60234;DHT22;49514;43.538;-5.708;2023-05-23T15:25:12;23.80;99.90
60234;DHT22;49514;43.538;-5.708;2023-05-23T15:27:39;23.70;99.90
60234;DHT22;49514;43.538;-5.708;2023-05-23T15:30:06;23.70;99.90
60234;DHT22;49514;43.538;-5.708;2023-05-23T15:32:33;23.40;99.90
60234;DHT22;49514;43.538;-5.708;2023-05-23T15:35:00;23.30;99.90
60234;DHT22;49514;43.538;-5.708;2023-05-23T15:37:26;23.10;99.90
60234;DHT22;49514;43.538;-5.708;2023-05-23T15:39:53;23.00;99.90
60234;DHT22;49514;43.538;-5.708;2023-05-23T15:42:19;22.90;99.90
60234;DHT22;49514;43.538;-5.708;2023-05-23T15:44:46;22.90;99.90
60234;DHT22;49514;43.538;-5.708;2023-05-23T15:47:13;22.80;99.90
60234;DHT22;49514;43.538;-5.708;2023-05-23T15:49:39;22.80;99.90
60234;DHT22;49514;43.538;-5.708;2023-05-23T15:52:06;22.80;99.90
60234;DHT22;49514;43.538;-5.708;2023-05-23T15:54:33;22.70;99.90